sensor_id;sensor_type;location;lat;lon;timestamp;pressure;altitude;pressure_sealevel;temperature;humidity
48204;BME280;33994;50.998;5.864;2023-05-12T00:01:31;101012.66;;;13.01;100.00
48204;BME280;33994;50.998;5.864;2023-05-12T00:04:34;101007.44;;;13.00;100.00
48204;BME280;33994;50.998;5.864;2023-05-12T00:07:38;101001.38;;;12.98;100.00
48204;BME280;33994;50.998;5.864;2023-05-12T00:10:41;101006.63;;;12.98;100.00
48204;BME280;33994;50.998;5.864;2023-05-12T00:13:45;100999.66;;;12.97;100.00
48204;BME280;33994;50.998;5.864;2023-05-12T00:16:48;101002.28;;;12.95;100.00
48204;BME280;33994;50.998;5.864;2023-05-12T00:19:51;100999.66;;;12.95;100.00
48204;BME280;33994;50.998;5.864;2023-05-12T00:22:55;100997.94;;;12.94;100.00
48204;BME280;33994;50.998;5.864;2023-05-12T00:25:59;100990.94;;;12.95;100.00
48204;BME280;33994;50.998;5.864;2023-05-12T00:29:02;101001.44;;;12.95;100.00
48204;BME280;33994;50.998;5.864;2023-05-12T00:32:05;100990.94;;;12.95;100.00
48204;BME280;33994;50.998;5.864;2023-05-12T00:35:09;100990.94;;;12.95;100.00
48204;BME280;33994;50.998;5.864;2023-05-12T00:38:13;100990.94;;;12.95;100.00
48204;BME280;33994;50.998;5.864;2023-05-12T00:41:16;100988.31;;;12.95;100.00
48204;BME280;33994;50.998;5.864;2023-05-12T00:44:19;100990.94;;;12.95;100.00
48204;BME280;33994;50.998;5.864;2023-05-12T00:47:23;100993.59;;;12.93;100.00
48204;BME280;33994;50.998;5.864;2023-05-12T00:50:26;100989.22;;;12.94;100.00
48204;BME280;33994;50.998;5.864;2023-05-12T00:53:31;100984.81;;;12.94;100.00
48204;BME280;33994;50.998;5.864;2023-05-12T00:56:35;100982.31;;;12.89;100.00
48204;BME280;33994;50.998;5.864;2023-05-12T00:59:38;100984.94;;;12.88;100.00
48204;BME280;33994;50.998;5.864;2023-05-12T01:02:41;100972.69;;;12.88;100.00
48204;BME280;33994;50.998;5.864;2023-05-12T01:05:48;100976.19;;;12.89;100.00
48204;BME280;33994;50.998;5.864;2023-05-12T01:08:54;100971.00;;;12.86;100.00
48204;BME280;33994;50.998;5.864;2023-05-12T01:11:57;100965.75;;;12.86;100.00
48204;BME280;33994;50.998;5.864;2023-05-12T01:15:00;100969.25;;;12.85;100.00
48204;BME280;33994;50.998;5.864;2023-05-12T01:18:04;100965.75;;;12.84;100.00
48204;BME280;33994;50.998;5.864;2023-05-12T01:21:09;100961.44;;;12.83;100.00
48204;BME280;33994;50.998;5.864;2023-05-12T01:24:14;100962.34;;;12.82;100.00
48204;BME280;33994;50.998;5.864;2023-05-12T01:27:22;100958.84;;;12.80;100.00
48204;BME280;33994;50.998;5.864;2023-05-12T01:30:27;100956.28;;;12.79;100.00
48204;BME280;33994;50.998;5.864;2023-05-12T01:33:31;100951.91;;;12.79;100.00
48204;BME280;33994;50.998;5.864;2023-05-12T01:36:34;100957.09;;;12.81;100.00
48204;BME280;33994;50.998;5.864;2023-05-12T01:39:37;100950.13;;;12.80;100.00
48204;BME280;33994;50.998;5.864;2023-05-12T01:42:42;100947.56;;;12.78;100.00
48204;BME280;33994;50.998;5.864;2023-05-12T01:45:45;100948.41;;;12.77;100.00
48204;BME280;33994;50.998;5.864;2023-05-12T01:48:48;100944.09;;;12.76;100.00
48204;BME280;33994;50.998;5.864;2023-05-12T01:51:52;100944.09;;;12.76;100.00
48204;BME280;33994;50.998;5.864;2023-05-12T01:54:55;100941.44;;;12.78;100.00
48204;BME280;33994;50.998;5.864;2023-05-12T01:57:59;100937.13;;;12.75;100.00
48204;BME280;33994;50.998;5.864;2023-05-12T02:01:03;100935.41;;;12.73;100.00
48204;BME280;33994;50.998;5.864;2023-05-12T02:04:06;100938.88;;;12.73;100.00
48204;BME280;33994;50.998;5.864;2023-05-12T02:07:09;100940.75;;;12.68;100.00
48204;BME280;33994;50.998;5.864;2023-05-12T02:10:12;100939.97;;;12.64;100.00
48204;BME280;33994;50.998;5.864;2023-05-12T02:13:16;100938.13;;;12.68;100.00
48204;BME280;33994;50.998;5.864;2023-05-12T02:16:20;100935.47;;;12.70;100.00
48204;BME280;33994;50.998;5.864;2023-05-12T02:19:22;100933.00;;;12.63;100.00
48204;BME280;33994;50.998;5.864;2023-05-12T02:22:26;100937.44;;;12.60;100.00
48204;BME280;33994;50.998;5.864;2023-05-12T02:25:29;100933.19;;;12.54;100.00
48204;BME280;33994;50.998;5.864;2023-05-12T02:28:34;100934.09;;;12.53;100.00
48204;BME280;33994;50.998;5.864;2023-05-12T02:31:36;100931.50;;;12.52;100.00
48204;BME280;33994;50.998;5.864;2023-05-12T02:34:40;100921.91;;;12.51;100.00
48204;BME280;33994;50.998;5.864;2023-05-12T02:37:43;100919.28;;;12.51;100.00
48204;BME280;33994;50.998;5.864;2023-05-12T02:40:46;100911.47;;;12.48;100.00
48204;BME280;33994;50.998;5.864;2023-05-12T02:43:50;100916.72;;;12.48;100.00
48204;BME280;33994;50.998;5.864;2023-05-12T02:46:53;100913.25;;;12.46;100.00
48204;BME280;33994;50.998;5.864;2023-05-12T02:49:56;100909.81;;;12.44;100.00
48204;BME280;33994;50.998;5.864;2023-05-12T02:53:00;100905.44;;;12.43;100.00
48204;BME280;33994;50.998;5.864;2023-05-12T02:56:03;100909.88;;;12.40;100.00
48204;BME280;33994;50.998;5.864;2023-05-12T02:59:08;100901.22;;;12.35;100.00
48204;BME280;33994;50.998;5.864;2023-05-12T03:02:11;100896.94;;;12.31;100.00
48204;BME280;33994;50.998;5.864;2023-05-12T03:05:14;100893.56;;;12.26;100.00
48204;BME280;33994;50.998;5.864;2023-05-12T03:08:18;100904.09;;;12.23;100.00
48204;BME280;33994;50.998;5.864;2023-05-12T03:11:21;100899.78;;;12.19;100.00
48204;BME280;33994;50.998;5.864;2023-05-12T03:14:25;100900.81;;;12.12;100.00
48204;BME280;33994;50.998;5.864;2023-05-12T03:17:29;100894.81;;;12.07;100.00
48204;BME280;33994;50.998;5.864;2023-05-12T03:20:32;100895.75;;;12.03;100.00
48204;BME280;33994;50.998;5.864;2023-05-12T03:23:35;100895.00;;;11.98;100.00
48204;BME280;33994;50.998;5.864;2023-05-12T03:26:38;100890.63;;;11.97;100.00
48204;BME280;33994;50.998;5.864;2023-05-12T03:29:43;100881.91;;;11.98;100.00
48204;BME280;33994;50.998;5.864;2023-05-12T03:32:46;100887.13;;;11.98;100.00
48204;BME280;33994;50.998;5.864;2023-05-12T03:35:49;100881.00;;;11.99;100.00
48204;BME280;33994;50.998;5.864;2023-05-12T03:38:52;100884.56;;;11.95;100.00
48204;BME280;33994;50.998;5.864;2023-05-12T03:41:55;100881.94;;;11.95;100.00
48204;BME280;33994;50.998;5.864;2023-05-12T03:45:00;100874.09;;;11.93;100.00
48204;BME280;33994;50.998;5.864;2023-05-12T03:48:04;100874.94;;;11.95;100.00
48204;BME280;33994;50.998;5.864;2023-05-12T03:51:07;100867.19;;;11.90;100.00
48204;BME280;33994;50.998;5.864;2023-05-12T03:54:10;100865.47;;;11.88;100.00
48204;BME280;33994;50.998;5.864;2023-05-12T03:57:13;100865.56;;;11.83;100.00
48204;BME280;33994;50.998;5.864;2023-05-12T04:00:19;100866.47;;;11.81;100.00
48204;BME280;33994;50.998;5.864;2023-05-12T04:03:22;100866.53;;;11.79;100.00
48204;BME280;33994;50.998;5.864;2023-05-12T04:06:25;100863.94;;;11.76;100.00
48204;BME280;33994;50.998;5.864;2023-05-12T04:09:29;100872.72;;;11.75;100.00
48204;BME280;33994;50.998;5.864;2023-05-12T04:12:33;100862.25;;;11.75;100.00
48204;BME280;33994;50.998;5.864;2023-05-12T04:15:37;100871.88;;;11.73;100.00
48204;BME280;33994;50.998;5.864;2023-05-12T04:18:41;100873.66;;;11.71;100.00
48204;BME280;33994;50.998;5.864;2023-05-12T04:21:44;100878.00;;;11.72;100.00
48204;BME280;33994;50.998;5.864;2023-05-12T04:24:48;100871.06;;;11.71;100.00
48204;BME280;33994;50.998;5.864;2023-05-12T04:27:51;100872.75;;;11.72;100.00
48204;BME280;33994;50.998;5.864;2023-05-12T04:30:55;100872.81;;;11.69;100.00
48204;BME280;33994;50.998;5.864;2023-05-12T04:33:58;100872.81;;;11.69;100.00
48204;BME280;33994;50.998;5.864;2023-05-12T04:37:01;100868.44;;;11.71;100.00
48204;BME280;33994;50.998;5.864;2023-05-12T04:40:06;100872.72;;;11.74;100.00
48204;BME280;33994;50.998;5.864;2023-05-12T04:43:09;100869.25;;;11.75;100.00
48204;BME280;33994;50.998;5.864;2023-05-12T04:46:14;100872.72;;;11.75;100.00
48204;BME280;33994;50.998;5.864;2023-05-12T04:49:17;100883.19;;;11.75;100.00
48204;BME280;33994;50.998;5.864;2023-05-12T04:52:20;100885.72;;;11.80;100.00
48204;BME280;33994;50.998;5.864;2023-05-12T04:55:23;100887.50;;;11.78;100.00
48204;BME280;33994;50.998;5.864;2023-05-12T04:58:27;100884.88;;;11.79;100.00
48204;BME280;33994;50.998;5.864;2023-05-12T05:01:31;100886.53;;;11.83;100.00
48204;BME280;33994;50.998;5.864;2023-05-12T05:04:35;100890.00;;;11.84;100.00
48204;BME280;33994;50.998;5.864;2023-05-12T05:07:38;100898.72;;;11.84;100.00
48204;BME280;33994;50.998;5.864;2023-05-12T05:10:41;100901.41;;;11.83;100.00
48204;BME280;33994;50.998;5.864;2023-05-12T05:13:45;100899.69;;;11.80;100.00
48204;BME280;33994;50.998;5.864;2023-05-12T05:16:49;100901.44;;;11.80;100.00
48204;BME280;33994;50.998;5.864;2023-05-12T05:19:52;100911.06;;;11.79;100.00
48204;BME280;33994;50.998;5.864;2023-05-12T05:22:55;100904.97;;;11.79;100.00
48204;BME280;33994;50.998;5.864;2023-05-12T05:25:59;100913.75;;;11.76;100.00
48204;BME280;33994;50.998;5.864;2023-05-12T05:29:03;100911.13;;;11.76;100.00
48204;BME280;33994;50.998;5.864;2023-05-12T05:32:07;100917.22;;;11.78;100.00
48204;BME280;33994;50.998;5.864;2023-05-12T05:35:11;100918.94;;;11.79;100.00
48204;BME280;33994;50.998;5.864;2023-05-12T05:38:14;100922.31;;;11.86;100.00
48204;BME280;33994;50.998;5.864;2023-05-12T05:41:17;100919.59;;;11.90;100.00
48204;BME280;33994;50.998;5.864;2023-05-12T05:44:20;100928.31;;;11.89;100.00
48204;BME280;33994;50.998;5.864;2023-05-12T05:47:25;100933.56;;;11.89;100.00
48204;BME280;33994;50.998;5.864;2023-05-12T05:50:28;100931.00;;;11.88;100.00
48204;BME280;33994;50.998;5.864;2023-05-12T05:53:31;100929.22;;;11.90;100.00
48204;BME280;33994;50.998;5.864;2023-05-12T05:56:35;100935.28;;;11.92;100.00
48204;BME280;33994;50.998;5.864;2023-05-12T05:59:38;100941.28;;;11.99;100.00
48204;BME280;33994;50.998;5.864;2023-05-12T06:02:42;100941.22;;;12.02;100.00
48204;BME280;33994;50.998;5.864;2023-05-12T06:05:46;100948.16;;;12.04;100.00
48204;BME280;33994;50.998;5.864;2023-05-12T06:08:49;100952.53;;;12.04;100.00
48204;BME280;33994;50.998;5.864;2023-05-12T06:11:52;100955.94;;;12.09;100.00
48204;BME280;33994;50.998;5.864;2023-05-12T06:14:55;100954.19;;;12.09;100.00
48204;BME280;33994;50.998;5.864;2023-05-12T06:18:00;100959.38;;;12.11;100.00
48204;BME280;33994;50.998;5.864;2023-05-12T06:21:03;100965.47;;;12.13;100.00
48204;BME280;33994;50.998;5.864;2023-05-12T06:24:06;100971.59;;;12.12;100.00
48204;BME280;33994;50.998;5.864;2023-05-12T06:27:09;100968.91;;;12.15;100.00
48204;BME280;33994;50.998;5.864;2023-05-12T06:30:13;100975.00;;;12.17;100.00
48204;BME280;33994;50.998;5.864;2023-05-12T06:33:17;100978.44;;;12.19;100.00
48204;BME280;33994;50.998;5.864;2023-05-12T06:36:20;100977.56;;;12.20;100.00
48204;BME280;33994;50.998;5.864;2023-05-12T06:39:24;100988.03;;;12.20;100.00
48204;BME280;33994;50.998;5.864;2023-05-12T06:42:27;100979.31;;;12.21;100.00
48204;BME280;33994;50.998;5.864;2023-05-12T06:45:30;100987.16;;;12.21;100.00
48204;BME280;33994;50.998;5.864;2023-05-12T06:48:35;100989.78;;;12.21;100.00
48204;BME280;33994;50.998;5.864;2023-05-12T06:51:38;100988.03;;;12.20;100.00
48204;BME280;33994;50.998;5.864;2023-05-12T06:54:41;100988.88;;;12.22;100.00
48204;BME280;33994;50.998;5.864;2023-05-12T06:57:44;100991.50;;;12.24;100.00
48204;BME280;33994;50.998;5.864;2023-05-12T07:00:47;100992.25;;;12.30;100.00
48204;BME280;33994;50.998;5.864;2023-05-12T07:03:52;100993.88;;;12.37;100.00
48204;BME280;33994;50.998;5.864;2023-05-12T07:06:55;100994.56;;;12.47;100.00
48204;BME280;33994;50.998;5.864;2023-05-12T07:09:58;100995.22;;;12.57;100.00
48204;BME280;33994;50.998;5.864;2023-05-12T07:13:02;100995.13;;;12.61;100.00
48204;BME280;33994;50.998;5.864;2023-05-12T07:16:05;101001.16;;;12.67;100.00
48204;BME280;33994;50.998;5.864;2023-05-12T07:19:10;100999.28;;;12.72;100.00
48204;BME280;33994;50.998;5.864;2023-05-12T07:22:13;100997.44;;;12.77;100.00
48204;BME280;33994;50.998;5.864;2023-05-12T07:25:16;100992.91;;;12.83;100.00
48204;BME280;33994;50.998;5.864;2023-05-12T07:28:19;101001.50;;;12.92;100.00
48204;BME280;33994;50.998;5.864;2023-05-12T07:31:22;101001.44;;;12.95;100.00
48204;BME280;33994;50.998;5.864;2023-05-12T07:34:27;101001.38;;;12.98;100.00
48204;BME280;33994;50.998;5.864;2023-05-12T07:37:30;100997.84;;;12.99;100.00
48204;BME280;33994;50.998;5.864;2023-05-12T07:40:33;101003.94;;;12.99;100.00
48204;BME280;33994;50.998;5.864;2023-05-12T07:43:37;101003.94;;;12.99;100.00
48204;BME280;33994;50.998;5.864;2023-05-12T07:46:40;101009.31;;;12.95;100.00
48204;BME280;33994;50.998;5.864;2023-05-12T07:49:44;101004.09;;;12.93;100.00
48204;BME280;33994;50.998;5.864;2023-05-12T07:52:48;101014.44;;;12.99;100.00
48204;BME280;33994;50.998;5.864;2023-05-12T07:55:52;101013.47;;;13.03;100.00
48204;BME280;33994;50.998;5.864;2023-05-12T07:58:55;101020.31;;;13.12;100.00
48204;BME280;33994;50.998;5.864;2023-05-12T08:01:58;101016.56;;;13.22;100.00
48204;BME280;33994;50.998;5.864;2023-05-12T08:05:03;101023.34;;;13.32;100.00
48204;BME280;33994;50.998;5.864;2023-05-12T08:08:07;101023.28;;;13.35;99.65
48204;BME280;33994;50.998;5.864;2023-05-12T08:11:10;101022.41;;;13.35;98.86
48204;BME280;33994;50.998;5.864;2023-05-12T08:14:13;101030.25;;;13.36;98.49
48204;BME280;33994;50.998;5.864;2023-05-12T08:17:16;101031.91;;;13.41;98.58
48204;BME280;33994;50.998;5.864;2023-05-12T08:20:21;101033.63;;;13.42;97.85
48204;BME280;33994;50.998;5.864;2023-05-12T08:23:24;101038.81;;;13.45;97.47
48204;BME280;33994;50.998;5.864;2023-05-12T08:26:27;101039.59;;;13.48;97.18
48204;BME280;33994;50.998;5.864;2023-05-12T08:29:30;101035.19;;;13.52;96.27
48204;BME280;33994;50.998;5.864;2023-05-12T08:32:33;101042.09;;;13.56;96.19
48204;BME280;33994;50.998;5.864;2023-05-12T08:35:38;101040.13;;;13.64;96.62
48204;BME280;33994;50.998;5.864;2023-05-12T08:38:42;101049.66;;;13.68;95.61
48204;BME280;33994;50.998;5.864;2023-05-12T08:41:50;101051.47;;;13.66;94.75
48204;BME280;33994;50.998;5.864;2023-05-12T08:44:54;101055.91;;;13.64;94.76
48204;BME280;33994;50.998;5.864;2023-05-12T08:47:58;101064.47;;;13.72;94.92
48204;BME280;33994;50.998;5.864;2023-05-12T08:51:05;101061.88;;;13.71;94.87
48204;BME280;33994;50.998;5.864;2023-05-12T08:54:11;101064.47;;;13.72;94.80
48204;BME280;33994;50.998;5.864;2023-05-12T08:57:14;101067.13;;;13.71;94.33
48204;BME280;33994;50.998;5.864;2023-05-12T09:00:19;101072.41;;;13.71;93.85
48204;BME280;33994;50.998;5.864;2023-05-12T09:03:23;101074.13;;;13.72;94.07
48204;BME280;33994;50.998;5.864;2023-05-12T09:06:27;101072.31;;;13.74;93.69
48204;BME280;33994;50.998;5.864;2023-05-12T09:09:32;101073.13;;;13.77;93.45
48204;BME280;33994;50.998;5.864;2023-05-12T09:12:35;101073.13;;;13.77;92.80
48204;BME280;33994;50.998;5.864;2023-05-12T09:15:43;101068.72;;;13.78;92.36
48204;BME280;33994;50.998;5.864;2023-05-12T09:18:51;101081.63;;;13.87;92.24
48204;BME280;33994;50.998;5.864;2023-05-12T09:21:56;101069.06;;;14.00;91.98
48204;BME280;33994;50.998;5.864;2023-05-12T09:25:00;101074.91;;;14.11;91.50
48204;BME280;33994;50.998;5.864;2023-05-12T09:28:03;101072.88;;;14.21;90.34
48204;BME280;33994;50.998;5.864;2023-05-12T09:31:13;101081.56;;;14.24;89.19
48204;BME280;33994;50.998;5.864;2023-05-12T09:34:17;101074.50;;;14.26;88.46
48204;BME280;33994;50.998;5.864;2023-05-12T09:37:29;101077.03;;;14.29;88.35
48204;BME280;33994;50.998;5.864;2023-05-12T09:40:32;101078.59;;;14.36;88.45
48204;BME280;33994;50.998;5.864;2023-05-12T09:43:35;101084.63;;;14.42;88.21
48204;BME280;33994;50.998;5.864;2023-05-12T09:46:39;101076.47;;;14.51;87.59
48204;BME280;33994;50.998;5.864;2023-05-12T09:49:45;101077.06;;;14.60;87.07
48204;BME280;33994;50.998;5.864;2023-05-12T09:52:49;101079.63;;;14.65;86.32
48204;BME280;33994;50.998;5.864;2023-05-12T09:55:52;101082.25;;;14.64;85.07
48204;BME280;33994;50.998;5.864;2023-05-12T09:58:56;101086.75;;;14.60;85.03
48204;BME280;33994;50.998;5.864;2023-05-12T10:02:01;101085.03;;;14.59;85.26
48204;BME280;33994;50.998;5.864;2023-05-12T10:05:05;101083.94;;;14.68;85.95
48204;BME280;33994;50.998;5.864;2023-05-12T10:08:13;101089.75;;;14.80;86.10
48204;BME280;33994;50.998;5.864;2023-05-12T10:11:21;101094.78;;;14.88;85.01
48204;BME280;33994;50.998;5.864;2023-05-12T10:14:24;101091.16;;;14.92;84.46
48204;BME280;33994;50.998;5.864;2023-05-12T10:17:28;101103.19;;;15.01;84.09
48204;BME280;33994;50.998;5.864;2023-05-12T10:20:34;101097.06;;;15.00;83.04
48204;BME280;33994;50.998;5.864;2023-05-12T10:23:39;101099.63;;;15.02;82.23
48204;BME280;33994;50.998;5.864;2023-05-12T10:26:43;101095.91;;;15.09;81.89
48204;BME280;33994;50.998;5.864;2023-05-12T10:29:47;101101.19;;;15.09;80.62
48204;BME280;33994;50.998;5.864;2023-05-12T10:32:50;101108.28;;;15.07;80.18
48204;BME280;33994;50.998;5.864;2023-05-12T10:35:53;101111.69;;;15.11;80.00
48204;BME280;33994;50.998;5.864;2023-05-12T10:39:04;101104.75;;;15.08;79.37
48204;BME280;33994;50.998;5.864;2023-05-12T10:42:08;101102.19;;;15.05;79.23
48204;BME280;33994;50.998;5.864;2023-05-12T10:45:16;101111.94;;;15.03;79.54
48204;BME280;33994;50.998;5.864;2023-05-12T10:48:19;101110.94;;;15.07;79.95
48204;BME280;33994;50.998;5.864;2023-05-12T10:51:23;101114.28;;;15.12;80.04
48204;BME280;33994;50.998;5.864;2023-05-12T10:54:28;101111.56;;;15.15;79.44
48204;BME280;33994;50.998;5.864;2023-05-12T10:57:31;101116.81;;;15.15;78.79
48204;BME280;33994;50.998;5.864;2023-05-12T11:00:44;101121.03;;;15.21;79.32
48204;BME280;33994;50.998;5.864;2023-05-12T11:03:48;101107.63;;;15.28;78.88
48204;BME280;33994;50.998;5.864;2023-05-12T11:06:57;101108.25;;;15.37;78.63
48204;BME280;33994;50.998;5.864;2023-05-12T11:10:03;101104.44;;;15.47;77.47
48204;BME280;33994;50.998;5.864;2023-05-12T11:13:07;101100.78;;;15.52;77.29
48204;BME280;33994;50.998;5.864;2023-05-12T11:16:11;101115.53;;;15.58;76.58
48204;BME280;33994;50.998;5.864;2023-05-12T11:19:14;101111.78;;;15.65;76.03
48204;BME280;33994;50.998;5.864;2023-05-12T11:22:21;101116.13;;;15.68;74.96
48204;BME280;33994;50.998;5.864;2023-05-12T11:25:26;101114.25;;;15.71;74.68
48204;BME280;33994;50.998;5.864;2023-05-12T11:28:38;101122.09;;;15.73;73.97
48204;BME280;33994;50.998;5.864;2023-05-12T11:31:46;101120.38;;;15.72;73.80
48204;BME280;33994;50.998;5.864;2023-05-12T11:34:49;101124.69;;;15.74;74.04
48204;BME280;33994;50.998;5.864;2023-05-12T11:37:52;101113.28;;;15.75;72.80
48204;BME280;33994;50.998;5.864;2023-05-12T11:40:57;101117.53;;;15.79;71.71
48204;BME280;33994;50.998;5.864;2023-05-12T11:44:11;101116.22;;;15.93;73.07
48204;BME280;33994;50.998;5.864;2023-05-12T11:47:15;101115.69;;;16.10;72.30
48204;BME280;33994;50.998;5.864;2023-05-12T11:50:21;101114.22;;;16.26;71.71
48204;BME280;33994;50.998;5.864;2023-05-12T11:53:24;101128.72;;;16.39;71.94
48204;BME280;33994;50.998;5.864;2023-05-12T11:56:28;101130.47;;;16.40;69.83
48204;BME280;33994;50.998;5.864;2023-05-12T11:59:33;101121.53;;;16.44;69.03
48204;BME280;33994;50.998;5.864;2023-05-12T12:02:36;101128.16;;;16.56;67.85
48204;BME280;33994;50.998;5.864;2023-05-12T12:05:40;101129.66;;;16.63;64.75
48204;BME280;33994;50.998;5.864;2023-05-12T12:08:51;101137.44;;;16.68;64.09
48204;BME280;33994;50.998;5.864;2023-05-12T12:11:55;101141.47;;;16.78;64.52
48204;BME280;33994;50.998;5.864;2023-05-12T12:14:59;101144.56;;;16.91;63.86
48204;BME280;33994;50.998;5.864;2023-05-12T12:18:02;101139.94;;;16.97;63.02
48204;BME280;33994;50.998;5.864;2023-05-12T12:21:05;101149.19;;;17.09;63.08
48204;BME280;33994;50.998;5.864;2023-05-12T12:24:09;101148.19;;;17.12;62.89
48204;BME280;33994;50.998;5.864;2023-05-12T12:27:13;101157.69;;;17.17;64.46
48204;BME280;33994;50.998;5.864;2023-05-12T12:30:16;101149.69;;;17.19;63.89
48204;BME280;33994;50.998;5.864;2023-05-12T12:33:20;101161.25;;;17.16;62.41
48204;BME280;33994;50.998;5.864;2023-05-12T12:36:35;101150.91;;;17.10;61.26
48204;BME280;33994;50.998;5.864;2023-05-12T12:39:37;101156.97;;;17.12;62.81
48204;BME280;33994;50.998;5.864;2023-05-12T12:42:43;101159.50;;;17.15;62.87
48204;BME280;33994;50.998;5.864;2023-05-12T12:45:46;101156.69;;;17.20;62.91
48204;BME280;33994;50.998;5.864;2023-05-12T12:48:50;101169.69;;;17.26;62.91
48204;BME280;33994;50.998;5.864;2023-05-12T12:51:53;101158.06;;;17.30;63.22
48204;BME280;33994;50.998;5.864;2023-05-12T12:54:56;101162.28;;;17.36;63.60
48204;BME280;33994;50.998;5.864;2023-05-12T12:58:01;101162.13;;;17.39;64.29
48204;BME280;33994;50.998;5.864;2023-05-12T13:01:04;101170.78;;;17.44;63.79
48204;BME280;33994;50.998;5.864;2023-05-12T13:04:07;101167.13;;;17.46;63.12
48204;BME280;33994;50.998;5.864;2023-05-12T13:07:11;101167.22;;;17.45;63.33
48204;BME280;33994;50.998;5.864;2023-05-12T13:10:14;101178.72;;;17.44;63.03
48204;BME280;33994;50.998;5.864;2023-05-12T13:13:18;101169.84;;;17.45;62.67
48204;BME280;33994;50.998;5.864;2023-05-12T13:16:21;101171.53;;;17.47;61.90
48204;BME280;33994;50.998;5.864;2023-05-12T13:19:25;101164.28;;;17.52;62.06
48204;BME280;33994;50.998;5.864;2023-05-12T13:22:28;101170.31;;;17.56;62.03
48204;BME280;33994;50.998;5.864;2023-05-12T13:25:31;101170.09;;;17.62;61.83
48204;BME280;33994;50.998;5.864;2023-05-12T13:28:35;101169.81;;;17.68;61.37
48204;BME280;33994;50.998;5.864;2023-05-12T13:31:39;101167.03;;;17.73;61.05
48204;BME280;33994;50.998;5.864;2023-05-12T13:34:42;101159.16;;;17.71;59.40
48204;BME280;33994;50.998;5.864;2023-05-12T13:37:45;101166.41;;;17.66;58.38
48204;BME280;33994;50.998;5.864;2023-05-12T13:40:48;101168.09;;;17.67;59.10
48204;BME280;33994;50.998;5.864;2023-05-12T13:43:53;101163.59;;;17.71;60.42
48204;BME280;33994;50.998;5.864;2023-05-12T13:46:56;101157.34;;;17.73;60.53
48204;BME280;33994;50.998;5.864;2023-05-12T13:49:59;101165.09;;;17.78;60.51
48204;BME280;33994;50.998;5.864;2023-05-12T13:53:02;101171.84;;;17.85;60.90
48204;BME280;33994;50.998;5.864;2023-05-12T13:56:06;101170.75;;;17.91;61.15
48204;BME280;33994;50.998;5.864;2023-05-12T13:59:11;101178.91;;;17.85;61.33
48204;BME280;33994;50.998;5.864;2023-05-12T14:02:15;101196.09;;;17.74;62.95
48204;BME280;33994;50.998;5.864;2023-05-12T14:05:18;101196.13;;;17.49;65.17
48204;BME280;33994;50.998;5.864;2023-05-12T14:08:21;101186.56;;;17.22;67.40
48204;BME280;33994;50.998;5.864;2023-05-12T14:11:24;101195.34;;;16.99;68.32
48204;BME280;33994;50.998;5.864;2023-05-12T14:14:29;101187.03;;;16.85;69.63
48204;BME280;33994;50.998;5.864;2023-05-12T14:17:32;101192.06;;;16.66;70.34
48204;BME280;33994;50.998;5.864;2023-05-12T14:20:35;101195.38;;;16.46;71.66
48204;BME280;33994;50.998;5.864;2023-05-12T14:23:38;101203.56;;;16.38;72.66
48204;BME280;33994;50.998;5.864;2023-05-12T14:26:42;101203.56;;;16.38;73.80
48204;BME280;33994;50.998;5.864;2023-05-12T14:29:46;101190.28;;;16.40;75.55
48204;BME280;33994;50.998;5.864;2023-05-12T14:32:50;101201.75;;;16.40;75.89
48204;BME280;33994;50.998;5.864;2023-05-12T14:35:53;101189.56;;;16.36;76.43
48204;BME280;33994;50.998;5.864;2023-05-12T14:38:56;101188.56;;;16.39;77.44
48204;BME280;33994;50.998;5.864;2023-05-12T14:41:59;101188.53;;;16.40;77.52
48204;BME280;33994;50.998;5.864;2023-05-12T14:45:05;101187.63;;;16.41;77.43
48204;BME280;33994;50.998;5.864;2023-05-12T14:48:08;101190.75;;;16.52;77.70
48204;BME280;33994;50.998;5.864;2023-05-12T14:51:11;101185.16;;;16.62;76.83
48204;BME280;33994;50.998;5.864;2023-05-12T14:54:14;101191.00;;;16.71;76.08
48204;BME280;33994;50.998;5.864;2023-05-12T14:57:18;101199.72;;;16.73;75.58
48204;BME280;33994;50.998;5.864;2023-05-12T15:00:22;101192.72;;;16.72;76.07
48204;BME280;33994;50.998;5.864;2023-05-12T15:03:26;101193.31;;;16.82;75.41
48204;BME280;33994;50.998;5.864;2023-05-12T15:06:29;101190.41;;;16.90;75.20
48204;BME280;33994;50.998;5.864;2023-05-12T15:09:32;101195.53;;;16.93;75.98
48204;BME280;33994;50.998;5.864;2023-05-12T15:12:36;101183.06;;;16.98;76.81
48204;BME280;33994;50.998;5.864;2023-05-12T15:15:40;101184.66;;;17.02;76.83
48204;BME280;33994;50.998;5.864;2023-05-12T15:18:43;101182.78;;;17.06;76.58
48204;BME280;33994;50.998;5.864;2023-05-12T15:21:46;101179.13;;;17.08;74.54
48204;BME280;33994;50.998;5.864;2023-05-12T15:24:50;101183.25;;;17.17;73.38
48204;BME280;33994;50.998;5.864;2023-05-12T15:27:53;101177.72;;;17.23;71.97
48204;BME280;33994;50.998;5.864;2023-05-12T15:30:57;101181.00;;;17.30;71.99
48204;BME280;33994;50.998;5.864;2023-05-12T15:34:01;101181.75;;;17.33;71.68
48204;BME280;33994;50.998;5.864;2023-05-12T15:37:04;101180.78;;;17.36;71.35
48204;BME280;33994;50.998;5.864;2023-05-12T15:40:08;101182.50;;;17.37;70.67
48204;BME280;33994;50.998;5.864;2023-05-12T15:43:12;101183.28;;;17.39;70.09
48204;BME280;33994;50.998;5.864;2023-05-12T15:46:16;101189.41;;;17.41;70.79
48204;BME280;33994;50.998;5.864;2023-05-12T15:49:20;101186.69;;;17.42;70.84
48204;BME280;33994;50.998;5.864;2023-05-12T15:52:23;101192.97;;;17.40;70.21
48204;BME280;33994;50.998;5.864;2023-05-12T15:55:26;101192.03;;;17.41;70.16